Crab Meadow, New York
Current Conditions -  °F | °C
As of 10:53 AM on Thursday 27 Nov 2014 (Local Time) from KFRG Reporting Station
Overcast Overcast  
Wind Chill: 33°   Ceiling: 3500
Heat Index: 38°   Visibility: 10mi
Dew Point: 30°   Wind: 7mph
Humidity: 73%   Direction: 350°N
Pressure: 29.99"   Gusts: NA
Location:  40.9096°N, 73.3231°W
Report Text: KFRG 271553Z 35006KT 10SM FEW018 BKN035 OVC041 03/M01 A2999 RMK AO2 SNB36E47 SLP157 P0000 T00331011
Loading
Personal Weather Stations






























Interactive Weather Map New forecast layout! Learn more

10-Day Weather Forecast

Advertisements
Track Severe Weather on mobile